sensor_id;sensor_type;location;lat;lon;timestamp;P1;durP1;ratioP1;P2;durP2;ratioP2
1585;SDS011;786;48.718;9.514;2024-02-15T00:00:17;2.92;;;2.50;;
1585;SDS011;786;48.718;9.514;2024-02-15T00:02:45;2.95;;;2.60;;
1585;SDS011;786;48.718;9.514;2024-02-15T00:05:11;3.00;;;2.60;;
1585;SDS011;786;48.718;9.514;2024-02-15T00:07:39;4.20;;;2.67;;
1585;SDS011;786;48.718;9.514;2024-02-15T00:10:06;5.10;;;3.53;;
1585;SDS011;786;48.718;9.514;2024-02-15T00:12:34;4.18;;;2.90;;
1585;SDS011;786;48.718;9.514;2024-02-15T00:15:00;3.38;;;2.83;;
1585;SDS011;786;48.718;9.514;2024-02-15T00:17:27;3.17;;;2.85;;
1585;SDS011;786;48.718;9.514;2024-02-15T00:19:55;4.88;;;3.13;;
1585;SDS011;786;48.718;9.514;2024-02-15T00:22:22;3.60;;;3.20;;
1585;SDS011;786;48.718;9.514;2024-02-15T00:24:48;4.25;;;3.42;;
1585;SDS011;786;48.718;9.514;2024-02-15T00:27:15;4.10;;;3.40;;
1585;SDS011;786;48.718;9.514;2024-02-15T00:29:42;3.75;;;3.03;;
1585;SDS011;786;48.718;9.514;2024-02-15T00:32:08;4.72;;;3.70;;
1585;SDS011;786;48.718;9.514;2024-02-15T00:34:35;3.83;;;3.05;;
1585;SDS011;786;48.718;9.514;2024-02-15T00:37:03;5.78;;;3.00;;
1585;SDS011;786;48.718;9.514;2024-02-15T00:39:30;7.03;;;3.22;;
1585;SDS011;786;48.718;9.514;2024-02-15T00:41:56;3.55;;;3.25;;
1585;SDS011;786;48.718;9.514;2024-02-15T00:44:25;4.88;;;3.35;;
1585;SDS011;786;48.718;9.514;2024-02-15T00:46:51;5.22;;;3.83;;
1585;SDS011;786;48.718;9.514;2024-02-15T00:49:18;4.63;;;3.90;;
1585;SDS011;786;48.718;9.514;2024-02-15T00:51:45;5.82;;;3.92;;
1585;SDS011;786;48.718;9.514;2024-02-15T00:54:13;4.75;;;3.33;;
1585;SDS011;786;48.718;9.514;2024-02-15T00:56:39;5.80;;;3.75;;
1585;SDS011;786;48.718;9.514;2024-02-15T00:59:06;5.70;;;4.20;;
1585;SDS011;786;48.718;9.514;2024-02-15T01:01:32;4.47;;;3.38;;
1585;SDS011;786;48.718;9.514;2024-02-15T01:04:01;5.55;;;3.75;;
1585;SDS011;786;48.718;9.514;2024-02-15T01:06:28;4.65;;;3.72;;
1585;SDS011;786;48.718;9.514;2024-02-15T01:08:54;5.60;;;3.20;;
1585;SDS011;786;48.718;9.514;2024-02-15T01:11:23;3.65;;;2.92;;
1585;SDS011;786;48.718;9.514;2024-02-15T01:13:50;3.30;;;2.95;;
1585;SDS011;786;48.718;9.514;2024-02-15T01:16:17;4.38;;;3.17;;
1585;SDS011;786;48.718;9.514;2024-02-15T01:18:44;4.18;;;3.65;;
1585;SDS011;786;48.718;9.514;2024-02-15T01:21:10;5.00;;;3.22;;
1585;SDS011;786;48.718;9.514;2024-02-15T01:23:37;4.85;;;3.00;;
1585;SDS011;786;48.718;9.514;2024-02-15T01:26:04;3.00;;;2.55;;
1585;SDS011;786;48.718;9.514;2024-02-15T01:28:31;4.18;;;3.35;;
1585;SDS011;786;48.718;9.514;2024-02-15T01:30:58;3.25;;;2.95;;
1585;SDS011;786;48.718;9.514;2024-02-15T01:33:24;6.40;;;3.40;;
1585;SDS011;786;48.718;9.514;2024-02-15T01:35:51;6.13;;;4.43;;
1585;SDS011;786;48.718;9.514;2024-02-15T01:38:18;6.20;;;4.80;;
1585;SDS011;786;48.718;9.514;2024-02-15T01:40:46;10.82;;;4.72;;
1585;SDS011;786;48.718;9.514;2024-02-15T01:43:12;5.10;;;4.45;;
1585;SDS011;786;48.718;9.514;2024-02-15T01:45:40;4.75;;;3.88;;
1585;SDS011;786;48.718;9.514;2024-02-15T01:48:07;7.30;;;4.90;;
1585;SDS011;786;48.718;9.514;2024-02-15T01:50:33;8.02;;;5.13;;
1585;SDS011;786;48.718;9.514;2024-02-15T01:53:00;6.93;;;5.32;;
1585;SDS011;786;48.718;9.514;2024-02-15T01:55:28;6.20;;;5.20;;
1585;SDS011;786;48.718;9.514;2024-02-15T01:57:54;7.45;;;5.43;;
1585;SDS011;786;48.718;9.514;2024-02-15T02:00:21;7.55;;;5.72;;
1585;SDS011;786;48.718;9.514;2024-02-15T02:02:50;6.45;;;5.35;;
1585;SDS011;786;48.718;9.514;2024-02-15T02:05:20;6.60;;;4.45;;
1585;SDS011;786;48.718;9.514;2024-02-15T02:07:47;5.50;;;4.60;;
1585;SDS011;786;48.718;9.514;2024-02-15T02:10:14;5.97;;;4.65;;
1585;SDS011;786;48.718;9.514;2024-02-15T02:12:40;5.30;;;4.68;;
1585;SDS011;786;48.718;9.514;2024-02-15T02:15:07;6.47;;;4.95;;
1585;SDS011;786;48.718;9.514;2024-02-15T02:17:36;7.75;;;5.13;;
1585;SDS011;786;48.718;9.514;2024-02-15T02:20:04;8.90;;;5.88;;
1585;SDS011;786;48.718;9.514;2024-02-15T02:22:33;6.00;;;5.30;;
1585;SDS011;786;48.718;9.514;2024-02-15T02:25:02;7.40;;;5.88;;
1585;SDS011;786;48.718;9.514;2024-02-15T02:27:31;7.50;;;5.10;;
1585;SDS011;786;48.718;9.514;2024-02-15T02:29:58;5.07;;;4.57;;
1585;SDS011;786;48.718;9.514;2024-02-15T02:32:24;4.85;;;4.10;;
1585;SDS011;786;48.718;9.514;2024-02-15T02:34:51;5.38;;;3.78;;
1585;SDS011;786;48.718;9.514;2024-02-15T02:37:19;5.38;;;3.83;;
1585;SDS011;786;48.718;9.514;2024-02-15T02:39:45;3.90;;;2.90;;
1585;SDS011;786;48.718;9.514;2024-02-15T02:42:13;3.47;;;2.95;;
1585;SDS011;786;48.718;9.514;2024-02-15T02:44:39;4.47;;;3.05;;
1585;SDS011;786;48.718;9.514;2024-02-15T02:47:06;6.22;;;2.95;;
1585;SDS011;786;48.718;9.514;2024-02-15T02:49:32;4.95;;;2.70;;
1585;SDS011;786;48.718;9.514;2024-02-15T02:52:01;6.70;;;3.30;;
1585;SDS011;786;48.718;9.514;2024-02-15T02:54:28;4.38;;;3.00;;
1585;SDS011;786;48.718;9.514;2024-02-15T02:56:55;3.30;;;2.70;;
1585;SDS011;786;48.718;9.514;2024-02-15T02:59:23;4.47;;;3.00;;
1585;SDS011;786;48.718;9.514;2024-02-15T03:01:50;5.07;;;3.53;;
1585;SDS011;786;48.718;9.514;2024-02-15T03:04:16;4.07;;;2.80;;
1585;SDS011;786;48.718;9.514;2024-02-15T03:06:43;3.83;;;2.83;;
1585;SDS011;786;48.718;9.514;2024-02-15T03:09:11;5.13;;;3.17;;
1585;SDS011;786;48.718;9.514;2024-02-15T03:11:39;6.65;;;3.65;;
1585;SDS011;786;48.718;9.514;2024-02-15T03:14:05;4.90;;;3.67;;
1585;SDS011;786;48.718;9.514;2024-02-15T03:16:33;4.43;;;3.40;;
1585;SDS011;786;48.718;9.514;2024-02-15T03:18:59;5.70;;;3.67;;
1585;SDS011;786;48.718;9.514;2024-02-15T03:21:27;6.47;;;3.67;;
1585;SDS011;786;48.718;9.514;2024-02-15T03:23:54;6.13;;;3.90;;
1585;SDS011;786;48.718;9.514;2024-02-15T03:26:28;7.10;;;3.85;;
1585;SDS011;786;48.718;9.514;2024-02-15T03:28:55;7.07;;;4.13;;
1585;SDS011;786;48.718;9.514;2024-02-15T03:31:22;6.50;;;3.70;;
1585;SDS011;786;48.718;9.514;2024-02-15T03:33:49;5.32;;;3.75;;
1585;SDS011;786;48.718;9.514;2024-02-15T03:36:16;4.88;;;3.60;;
1585;SDS011;786;48.718;9.514;2024-02-15T03:38:45;7.05;;;4.47;;
1585;SDS011;786;48.718;9.514;2024-02-15T03:41:11;6.90;;;4.13;;
1585;SDS011;786;48.718;9.514;2024-02-15T03:43:38;5.43;;;4.47;;
1585;SDS011;786;48.718;9.514;2024-02-15T03:46:04;5.97;;;4.00;;
1585;SDS011;786;48.718;9.514;2024-02-15T03:48:32;6.60;;;4.53;;
1585;SDS011;786;48.718;9.514;2024-02-15T03:51:00;9.55;;;5.13;;
1585;SDS011;786;48.718;9.514;2024-02-15T03:53:26;5.90;;;4.35;;
1585;SDS011;786;48.718;9.514;2024-02-15T03:55:55;8.50;;;5.30;;
1585;SDS011;786;48.718;9.514;2024-02-15T03:58:21;7.88;;;4.78;;
1585;SDS011;786;48.718;9.514;2024-02-15T04:00:48;5.72;;;4.57;;
1585;SDS011;786;48.718;9.514;2024-02-15T04:03:14;5.53;;;3.97;;
1585;SDS011;786;48.718;9.514;2024-02-15T04:05:41;6.93;;;4.80;;
1585;SDS011;786;48.718;9.514;2024-02-15T04:08:09;6.95;;;3.55;;
1585;SDS011;786;48.718;9.514;2024-02-15T04:10:35;5.28;;;4.03;;
1585;SDS011;786;48.718;9.514;2024-02-15T04:13:02;5.28;;;3.75;;
1585;SDS011;786;48.718;9.514;2024-02-15T04:15:28;6.47;;;3.50;;
1585;SDS011;786;48.718;9.514;2024-02-15T04:17:55;4.88;;;4.00;;
1585;SDS011;786;48.718;9.514;2024-02-15T04:20:22;5.60;;;3.70;;
1585;SDS011;786;48.718;9.514;2024-02-15T04:22:49;3.92;;;3.45;;
1585;SDS011;786;48.718;9.514;2024-02-15T04:25:17;7.03;;;3.67;;
1585;SDS011;786;48.718;9.514;2024-02-15T04:27:45;5.97;;;4.00;;
1585;SDS011;786;48.718;9.514;2024-02-15T04:30:12;6.60;;;3.72;;
1585;SDS011;786;48.718;9.514;2024-02-15T04:32:40;5.40;;;3.80;;
1585;SDS011;786;48.718;9.514;2024-02-15T04:35:06;5.60;;;4.10;;
1585;SDS011;786;48.718;9.514;2024-02-15T04:37:35;7.50;;;4.88;;
1585;SDS011;786;48.718;9.514;2024-02-15T04:40:02;6.60;;;4.43;;
1585;SDS011;786;48.718;9.514;2024-02-15T04:42:34;4.57;;;3.78;;
1585;SDS011;786;48.718;9.514;2024-02-15T04:45:03;4.22;;;3.60;;
1585;SDS011;786;48.718;9.514;2024-02-15T04:47:33;6.20;;;3.63;;
1585;SDS011;786;48.718;9.514;2024-02-15T04:49:59;4.60;;;3.67;;
1585;SDS011;786;48.718;9.514;2024-02-15T04:52:27;4.47;;;3.38;;
1585;SDS011;786;48.718;9.514;2024-02-15T04:54:54;6.00;;;3.83;;
1585;SDS011;786;48.718;9.514;2024-02-15T04:57:23;5.82;;;4.28;;
1585;SDS011;786;48.718;9.514;2024-02-15T04:59:52;6.97;;;3.92;;
1585;SDS011;786;48.718;9.514;2024-02-15T05:02:18;5.68;;;4.28;;
1585;SDS011;786;48.718;9.514;2024-02-15T05:04:47;7.50;;;5.20;;
1585;SDS011;786;48.718;9.514;2024-02-15T05:07:13;9.70;;;5.60;;
1585;SDS011;786;48.718;9.514;2024-02-15T05:09:42;9.00;;;4.60;;
1585;SDS011;786;48.718;9.514;2024-02-15T05:12:08;7.32;;;4.90;;
1585;SDS011;786;48.718;9.514;2024-02-15T05:14:34;8.93;;;4.97;;
1585;SDS011;786;48.718;9.514;2024-02-15T05:17:03;8.23;;;5.10;;
1585;SDS011;786;48.718;9.514;2024-02-15T05:19:31;8.27;;;4.45;;
1585;SDS011;786;48.718;9.514;2024-02-15T05:21:57;7.88;;;4.60;;
1585;SDS011;786;48.718;9.514;2024-02-15T05:24:24;6.65;;;4.30;;
1585;SDS011;786;48.718;9.514;2024-02-15T05:26:50;6.93;;;5.05;;
1585;SDS011;786;48.718;9.514;2024-02-15T05:29:17;6.78;;;4.45;;
1585;SDS011;786;48.718;9.514;2024-02-15T05:31:45;8.88;;;5.72;;
1585;SDS011;786;48.718;9.514;2024-02-15T05:34:16;5.07;;;4.20;;
1585;SDS011;786;48.718;9.514;2024-02-15T05:36:43;7.68;;;4.90;;
1585;SDS011;786;48.718;9.514;2024-02-15T05:39:09;7.95;;;4.65;;
1585;SDS011;786;48.718;9.514;2024-02-15T05:41:39;6.90;;;4.85;;
1585;SDS011;786;48.718;9.514;2024-02-15T05:44:06;8.10;;;5.65;;
1585;SDS011;786;48.718;9.514;2024-02-15T05:46:33;12.95;;;7.95;;
1585;SDS011;786;48.718;9.514;2024-02-15T05:49:02;11.52;;;7.57;;
1585;SDS011;786;48.718;9.514;2024-02-15T05:51:31;14.60;;;9.75;;
1585;SDS011;786;48.718;9.514;2024-02-15T05:53:58;15.77;;;9.63;;
1585;SDS011;786;48.718;9.514;2024-02-15T05:56:25;15.80;;;11.10;;
1585;SDS011;786;48.718;9.514;2024-02-15T05:58:54;10.77;;;6.90;;
1585;SDS011;786;48.718;9.514;2024-02-15T06:01:20;8.90;;;6.15;;
1585;SDS011;786;48.718;9.514;2024-02-15T06:03:48;8.68;;;5.60;;
1585;SDS011;786;48.718;9.514;2024-02-15T06:06:15;10.98;;;6.50;;
1585;SDS011;786;48.718;9.514;2024-02-15T06:08:45;7.32;;;5.93;;
1585;SDS011;786;48.718;9.514;2024-02-15T06:11:12;13.60;;;6.80;;
1585;SDS011;786;48.718;9.514;2024-02-15T06:13:39;10.48;;;7.25;;
1585;SDS011;786;48.718;9.514;2024-02-15T06:16:06;16.35;;;8.70;;
1585;SDS011;786;48.718;9.514;2024-02-15T06:18:34;18.63;;;10.35;;
1585;SDS011;786;48.718;9.514;2024-02-15T06:21:02;15.15;;;8.63;;
1585;SDS011;786;48.718;9.514;2024-02-15T06:23:29;17.75;;;9.68;;
1585;SDS011;786;48.718;9.514;2024-02-15T06:25:56;14.70;;;8.48;;
1585;SDS011;786;48.718;9.514;2024-02-15T06:28:23;11.63;;;7.88;;
1585;SDS011;786;48.718;9.514;2024-02-15T06:31:03;11.75;;;7.38;;
1585;SDS011;786;48.718;9.514;2024-02-15T06:33:47;10.23;;;6.88;;
1585;SDS011;786;48.718;9.514;2024-02-15T06:36:31;12.10;;;6.88;;
1585;SDS011;786;48.718;9.514;2024-02-15T06:39:14;11.02;;;6.78;;
1585;SDS011;786;48.718;9.514;2024-02-15T06:44:40;11.45;;;7.10;;
1585;SDS011;786;48.718;9.514;2024-02-15T06:47:07;11.63;;;6.95;;
1585;SDS011;786;48.718;9.514;2024-02-15T06:49:35;11.38;;;6.85;;
1585;SDS011;786;48.718;9.514;2024-02-15T06:52:04;11.55;;;7.43;;
1585;SDS011;786;48.718;9.514;2024-02-15T06:54:32;12.70;;;6.82;;
1585;SDS011;786;48.718;9.514;2024-02-15T06:56:58;9.57;;;5.43;;
1585;SDS011;786;48.718;9.514;2024-02-15T06:59:27;9.25;;;6.55;;
1585;SDS011;786;48.718;9.514;2024-02-15T07:01:53;9.50;;;5.50;;
1585;SDS011;786;48.718;9.514;2024-02-15T07:04:20;9.90;;;6.70;;
1585;SDS011;786;48.718;9.514;2024-02-15T07:06:46;8.98;;;5.15;;
1585;SDS011;786;48.718;9.514;2024-02-15T07:09:14;7.90;;;5.28;;
1585;SDS011;786;48.718;9.514;2024-02-15T07:11:42;9.48;;;5.90;;
1585;SDS011;786;48.718;9.514;2024-02-15T07:14:09;10.55;;;5.55;;
1585;SDS011;786;48.718;9.514;2024-02-15T07:16:37;6.85;;;4.93;;
1585;SDS011;786;48.718;9.514;2024-02-15T07:19:03;5.00;;;4.18;;
1585;SDS011;786;48.718;9.514;2024-02-15T07:21:30;4.97;;;3.88;;
1585;SDS011;786;48.718;9.514;2024-02-15T07:23:57;5.30;;;4.50;;
1585;SDS011;786;48.718;9.514;2024-02-15T07:26:24;5.53;;;4.47;;
1585;SDS011;786;48.718;9.514;2024-02-15T07:28:51;6.78;;;5.20;;
1585;SDS011;786;48.718;9.514;2024-02-15T07:31:18;16.25;;;4.43;;
1585;SDS011;786;48.718;9.514;2024-02-15T07:33:47;4.32;;;3.35;;
1585;SDS011;786;48.718;9.514;2024-02-15T07:36:17;4.70;;;2.90;;
1585;SDS011;786;48.718;9.514;2024-02-15T07:38:44;3.30;;;3.00;;
1585;SDS011;786;48.718;9.514;2024-02-15T07:41:10;4.53;;;3.03;;
1585;SDS011;786;48.718;9.514;2024-02-15T07:43:37;6.38;;;3.42;;
1585;SDS011;786;48.718;9.514;2024-02-15T07:46:04;4.35;;;3.60;;
1585;SDS011;786;48.718;9.514;2024-02-15T07:48:30;4.13;;;3.72;;
1585;SDS011;786;48.718;9.514;2024-02-15T07:50:58;6.13;;;4.10;;
1585;SDS011;786;48.718;9.514;2024-02-15T07:53:25;4.10;;;3.70;;
1585;SDS011;786;48.718;9.514;2024-02-15T07:55:51;5.38;;;3.95;;
1585;SDS011;786;48.718;9.514;2024-02-15T07:58:17;6.47;;;5.43;;
1585;SDS011;786;48.718;9.514;2024-02-15T08:00:44;4.18;;;3.67;;
1585;SDS011;786;48.718;9.514;2024-02-15T08:03:10;3.67;;;3.38;;
1585;SDS011;786;48.718;9.514;2024-02-15T08:05:37;3.30;;;3.00;;
1585;SDS011;786;48.718;9.514;2024-02-15T08:08:05;5.47;;;3.67;;
1585;SDS011;786;48.718;9.514;2024-02-15T08:10:31;7.57;;;4.43;;
1585;SDS011;786;48.718;9.514;2024-02-15T08:12:59;4.57;;;4.18;;
1585;SDS011;786;48.718;9.514;2024-02-15T08:15:25;4.88;;;4.38;;
1585;SDS011;786;48.718;9.514;2024-02-15T08:17:52;4.22;;;3.35;;
1585;SDS011;786;48.718;9.514;2024-02-15T08:20:20;6.28;;;4.32;;
1585;SDS011;786;48.718;9.514;2024-02-15T08:22:47;6.85;;;4.00;;
1585;SDS011;786;48.718;9.514;2024-02-15T08:25:15;3.90;;;3.33;;
1585;SDS011;786;48.718;9.514;2024-02-15T08:27:43;3.80;;;3.50;;
1585;SDS011;786;48.718;9.514;2024-02-15T08:30:14;3.42;;;2.88;;
1585;SDS011;786;48.718;9.514;2024-02-15T08:32:41;4.47;;;3.30;;
1585;SDS011;786;48.718;9.514;2024-02-15T08:35:08;3.50;;;3.00;;
1585;SDS011;786;48.718;9.514;2024-02-15T08:37:35;3.47;;;2.92;;
1585;SDS011;786;48.718;9.514;2024-02-15T08:40:03;5.25;;;3.20;;
1585;SDS011;786;48.718;9.514;2024-02-15T08:42:36;3.08;;;2.70;;
1585;SDS011;786;48.718;9.514;2024-02-15T08:45:04;3.53;;;3.22;;
1585;SDS011;786;48.718;9.514;2024-02-15T08:47:33;5.20;;;3.42;;
1585;SDS011;786;48.718;9.514;2024-02-15T08:50:02;3.90;;;3.35;;
1585;SDS011;786;48.718;9.514;2024-02-15T08:52:29;4.90;;;3.20;;
1585;SDS011;786;48.718;9.514;2024-02-15T08:54:55;3.25;;;3.00;;
1585;SDS011;786;48.718;9.514;2024-02-15T08:57:24;3.33;;;2.75;;
1585;SDS011;786;48.718;9.514;2024-02-15T08:59:51;3.75;;;2.75;;
1585;SDS011;786;48.718;9.514;2024-02-15T09:02:18;4.95;;;3.03;;
1585;SDS011;786;48.718;9.514;2024-02-15T09:04:44;3.08;;;2.63;;
1585;SDS011;786;48.718;9.514;2024-02-15T09:07:11;4.50;;;2.90;;
1585;SDS011;786;48.718;9.514;2024-02-15T09:09:37;4.00;;;2.92;;
1585;SDS011;786;48.718;9.514;2024-02-15T09:12:04;4.90;;;3.03;;
1585;SDS011;786;48.718;9.514;2024-02-15T09:14:31;4.60;;;3.30;;
1585;SDS011;786;48.718;9.514;2024-02-15T09:16:58;3.38;;;2.88;;
1585;SDS011;786;48.718;9.514;2024-02-15T09:19:25;3.10;;;2.75;;
1585;SDS011;786;48.718;9.514;2024-02-15T09:21:51;4.38;;;3.33;;
1585;SDS011;786;48.718;9.514;2024-02-15T09:24:18;11.45;;;5.50;;
1585;SDS011;786;48.718;9.514;2024-02-15T09:26:45;13.20;;;7.07;;
1585;SDS011;786;48.718;9.514;2024-02-15T09:29:11;13.82;;;6.65;;
1585;SDS011;786;48.718;9.514;2024-02-15T09:31:38;8.75;;;4.95;;
1585;SDS011;786;48.718;9.514;2024-02-15T09:34:06;9.60;;;5.25;;
1585;SDS011;786;48.718;9.514;2024-02-15T09:36:33;5.40;;;2.92;;
1585;SDS011;786;48.718;9.514;2024-02-15T09:39:00;3.55;;;2.42;;
1585;SDS011;786;48.718;9.514;2024-02-15T09:41:26;2.08;;;1.77;;
1585;SDS011;786;48.718;9.514;2024-02-15T09:43:53;3.65;;;2.28;;
1585;SDS011;786;48.718;9.514;2024-02-15T09:46:20;2.80;;;2.42;;
1585;SDS011;786;48.718;9.514;2024-02-15T09:48:47;4.10;;;2.83;;
1585;SDS011;786;48.718;9.514;2024-02-15T09:51:17;7.47;;;4.10;;
1585;SDS011;786;48.718;9.514;2024-02-15T09:53:44;8.10;;;4.82;;
1585;SDS011;786;48.718;9.514;2024-02-15T09:56:12;7.70;;;4.78;;
1585;SDS011;786;48.718;9.514;2024-02-15T09:58:39;6.15;;;3.72;;
1585;SDS011;786;48.718;9.514;2024-02-15T10:01:05;4.80;;;3.20;;
1585;SDS011;786;48.718;9.514;2024-02-15T10:03:34;4.75;;;2.70;;
1585;SDS011;786;48.718;9.514;2024-02-15T10:06:02;3.90;;;2.95;;
1585;SDS011;786;48.718;9.514;2024-02-15T10:08:30;3.50;;;2.50;;
1585;SDS011;786;48.718;9.514;2024-02-15T10:11:05;4.38;;;2.60;;
1585;SDS011;786;48.718;9.514;2024-02-15T10:13:33;3.40;;;2.10;;
1585;SDS011;786;48.718;9.514;2024-02-15T10:15:59;5.03;;;2.58;;
1585;SDS011;786;48.718;9.514;2024-02-15T10:18:40;3.70;;;2.60;;
1585;SDS011;786;48.718;9.514;2024-02-15T10:21:06;4.10;;;2.13;;
1585;SDS011;786;48.718;9.514;2024-02-15T10:23:34;4.78;;;1.80;;
1585;SDS011;786;48.718;9.514;2024-02-15T10:26:00;3.88;;;2.10;;
1585;SDS011;786;48.718;9.514;2024-02-15T10:28:45;4.18;;;1.80;;
1585;SDS011;786;48.718;9.514;2024-02-15T10:31:12;2.42;;;1.52;;
1585;SDS011;786;48.718;9.514;2024-02-15T10:33:38;4.50;;;1.33;;
1585;SDS011;786;48.718;9.514;2024-02-15T10:36:05;3.22;;;1.20;;
1585;SDS011;786;48.718;9.514;2024-02-15T10:38:34;2.28;;;1.05;;
1585;SDS011;786;48.718;9.514;2024-02-15T10:41:02;2.28;;;1.10;;
1585;SDS011;786;48.718;9.514;2024-02-15T10:43:33;2.10;;;1.40;;
1585;SDS011;786;48.718;9.514;2024-02-15T10:45:59;2.55;;;1.30;;
1585;SDS011;786;48.718;9.514;2024-02-15T10:48:27;2.70;;;1.05;;
1585;SDS011;786;48.718;9.514;2024-02-15T10:50:54;2.70;;;1.17;;
1585;SDS011;786;48.718;9.514;2024-02-15T10:53:26;2.33;;;1.48;;
1585;SDS011;786;48.718;9.514;2024-02-15T10:55:59;3.28;;;1.30;;
1585;SDS011;786;48.718;9.514;2024-02-15T10:58:33;2.35;;;0.85;;
1585;SDS011;786;48.718;9.514;2024-02-15T11:01:00;1.58;;;1.00;;
1585;SDS011;786;48.718;9.514;2024-02-15T11:03:29;1.27;;;0.98;;
1585;SDS011;786;48.718;9.514;2024-02-15T11:05:58;2.72;;;0.90;;
1585;SDS011;786;48.718;9.514;2024-02-15T11:08:26;2.60;;;0.93;;
1585;SDS011;786;48.718;9.514;2024-02-15T11:10:53;2.47;;;1.27;;
1585;SDS011;786;48.718;9.514;2024-02-15T11:13:25;1.73;;;1.00;;
1585;SDS011;786;48.718;9.514;2024-02-15T11:15:52;1.23;;;0.68;;
1585;SDS011;786;48.718;9.514;2024-02-15T11:21:07;2.53;;;1.30;;
1585;SDS011;786;48.718;9.514;2024-02-15T11:23:35;1.48;;;0.90;;
1585;SDS011;786;48.718;9.514;2024-02-15T11:26:01;0.95;;;0.80;;
1585;SDS011;786;48.718;9.514;2024-02-15T11:28:37;2.75;;;0.90;;
1585;SDS011;786;48.718;9.514;2024-02-15T11:31:10;3.38;;;1.17;;
1585;SDS011;786;48.718;9.514;2024-02-15T11:33:38;1.65;;;1.00;;
1585;SDS011;786;48.718;9.514;2024-02-15T11:36:05;1.77;;;1.00;;
1585;SDS011;786;48.718;9.514;2024-02-15T11:38:33;1.70;;;1.00;;
1585;SDS011;786;48.718;9.514;2024-02-15T11:41:00;1.58;;;0.90;;
1585;SDS011;786;48.718;9.514;2024-02-15T11:43:51;1.77;;;0.90;;
1585;SDS011;786;48.718;9.514;2024-02-15T11:46:21;2.38;;;0.82;;
1585;SDS011;786;48.718;9.514;2024-02-15T11:48:50;1.30;;;0.73;;
1585;SDS011;786;48.718;9.514;2024-02-15T11:51:27;4.35;;;1.08;;
1585;SDS011;786;48.718;9.514;2024-02-15T11:54:04;1.17;;;0.93;;
1585;SDS011;786;48.718;9.514;2024-02-15T11:56:49;1.38;;;0.90;;
1585;SDS011;786;48.718;9.514;2024-02-15T11:59:31;3.17;;;1.20;;
1585;SDS011;786;48.718;9.514;2024-02-15T12:02:18;2.05;;;1.15;;
1585;SDS011;786;48.718;9.514;2024-02-15T12:05:03;1.90;;;0.80;;
1585;SDS011;786;48.718;9.514;2024-02-15T12:07:53;1.30;;;0.93;;
1585;SDS011;786;48.718;9.514;2024-02-15T12:10:37;1.88;;;0.80;;
1585;SDS011;786;48.718;9.514;2024-02-15T12:13:20;0.80;;;0.57;;
1585;SDS011;786;48.718;9.514;2024-02-15T12:16:05;4.93;;;1.00;;
1585;SDS011;786;48.718;9.514;2024-02-15T12:18:49;1.60;;;0.90;;
1585;SDS011;786;48.718;9.514;2024-02-15T12:21:19;1.25;;;1.02;;
1585;SDS011;786;48.718;9.514;2024-02-15T12:23:48;1.83;;;0.90;;
1585;SDS011;786;48.718;9.514;2024-02-15T12:26:14;1.65;;;1.02;;
1585;SDS011;786;48.718;9.514;2024-02-15T12:28:45;1.73;;;1.20;;
1585;SDS011;786;48.718;9.514;2024-02-15T12:31:17;1.30;;;1.00;;
1585;SDS011;786;48.718;9.514;2024-02-15T12:33:44;1.52;;;0.88;;
1585;SDS011;786;48.718;9.514;2024-02-15T12:36:11;2.13;;;1.05;;
1585;SDS011;786;48.718;9.514;2024-02-15T12:38:38;1.38;;;1.20;;
1585;SDS011;786;48.718;9.514;2024-02-15T12:41:16;2.03;;;1.20;;
1585;SDS011;786;48.718;9.514;2024-02-15T12:43:44;3.10;;;1.10;;
1585;SDS011;786;48.718;9.514;2024-02-15T12:46:11;1.23;;;1.00;;
1585;SDS011;786;48.718;9.514;2024-02-15T12:48:39;1.48;;;1.10;;
1585;SDS011;786;48.718;9.514;2024-02-15T12:51:12;1.05;;;0.80;;
1585;SDS011;786;48.718;9.514;2024-02-15T12:53:39;1.40;;;1.05;;
1585;SDS011;786;48.718;9.514;2024-02-15T12:56:06;2.78;;;1.48;;
1585;SDS011;786;48.718;9.514;2024-02-15T12:58:34;2.05;;;1.05;;
1585;SDS011;786;48.718;9.514;2024-02-15T13:01:01;3.88;;;1.10;;
1585;SDS011;786;48.718;9.514;2024-02-15T13:03:29;1.80;;;0.85;;
1585;SDS011;786;48.718;9.514;2024-02-15T13:05:57;2.05;;;1.13;;
1585;SDS011;786;48.718;9.514;2024-02-15T13:08:23;2.78;;;1.48;;
1585;SDS011;786;48.718;9.514;2024-02-15T13:10:49;2.60;;;0.98;;
1585;SDS011;786;48.718;9.514;2024-02-15T13:13:16;0.98;;;0.90;;
1585;SDS011;786;48.718;9.514;2024-02-15T13:15:42;1.30;;;0.77;;
1585;SDS011;786;48.718;9.514;2024-02-15T13:18:09;2.33;;;1.00;;
1585;SDS011;786;48.718;9.514;2024-02-15T13:20:36;1.00;;;0.88;;
1585;SDS011;786;48.718;9.514;2024-02-15T13:23:04;1.20;;;0.93;;
1585;SDS011;786;48.718;9.514;2024-02-15T13:25:34;2.53;;;1.70;;
1585;SDS011;786;48.718;9.514;2024-02-15T13:28:01;1.75;;;1.02;;
1585;SDS011;786;48.718;9.514;2024-02-15T13:30:29;1.45;;;0.85;;
1585;SDS011;786;48.718;9.514;2024-02-15T13:32:55;2.42;;;1.25;;
1585;SDS011;786;48.718;9.514;2024-02-15T13:35:22;1.23;;;0.88;;
1585;SDS011;786;48.718;9.514;2024-02-15T13:37:49;2.22;;;1.23;;
1585;SDS011;786;48.718;9.514;2024-02-15T13:40:18;4.13;;;1.25;;
1585;SDS011;786;48.718;9.514;2024-02-15T13:42:48;3.22;;;1.13;;
1585;SDS011;786;48.718;9.514;2024-02-15T13:45:17;2.08;;;1.70;;
1585;SDS011;786;48.718;9.514;2024-02-15T13:47:44;2.25;;;1.00;;
1585;SDS011;786;48.718;9.514;2024-02-15T13:50:12;1.73;;;1.00;;
1585;SDS011;786;48.718;9.514;2024-02-15T13:52:40;1.25;;;0.82;;
1585;SDS011;786;48.718;9.514;2024-02-15T13:55:08;1.52;;;1.20;;
1585;SDS011;786;48.718;9.514;2024-02-15T13:57:37;1.45;;;0.88;;
1585;SDS011;786;48.718;9.514;2024-02-15T14:00:05;2.55;;;1.10;;
1585;SDS011;786;48.718;9.514;2024-02-15T14:02:38;4.47;;;1.10;;
1585;SDS011;786;48.718;9.514;2024-02-15T14:05:04;3.13;;;1.23;;
1585;SDS011;786;48.718;9.514;2024-02-15T14:07:33;2.35;;;1.02;;
1585;SDS011;786;48.718;9.514;2024-02-15T14:10:00;2.20;;;1.00;;
1585;SDS011;786;48.718;9.514;2024-02-15T14:12:27;2.50;;;1.25;;
1585;SDS011;786;48.718;9.514;2024-02-15T14:14:55;2.40;;;1.27;;
1585;SDS011;786;48.718;9.514;2024-02-15T14:17:21;2.45;;;1.08;;
1585;SDS011;786;48.718;9.514;2024-02-15T14:19:48;3.03;;;1.50;;
1585;SDS011;786;48.718;9.514;2024-02-15T14:22:14;1.42;;;1.00;;
1585;SDS011;786;48.718;9.514;2024-02-15T14:24:41;3.47;;;1.10;;
1585;SDS011;786;48.718;9.514;2024-02-15T14:27:08;1.45;;;1.10;;
1585;SDS011;786;48.718;9.514;2024-02-15T14:29:35;4.13;;;1.30;;
1585;SDS011;786;48.718;9.514;2024-02-15T14:32:03;3.28;;;1.65;;
1585;SDS011;786;48.718;9.514;2024-02-15T14:34:48;2.78;;;1.30;;
1585;SDS011;786;48.718;9.514;2024-02-15T14:37:14;1.55;;;1.45;;
1585;SDS011;786;48.718;9.514;2024-02-15T14:39:42;3.20;;;1.60;;
1585;SDS011;786;48.718;9.514;2024-02-15T14:42:08;2.10;;;1.48;;
1585;SDS011;786;48.718;9.514;2024-02-15T14:44:37;2.10;;;1.25;;
1585;SDS011;786;48.718;9.514;2024-02-15T14:47:05;3.95;;;1.75;;
1585;SDS011;786;48.718;9.514;2024-02-15T14:49:32;2.40;;;1.30;;
1585;SDS011;786;48.718;9.514;2024-02-15T14:51:58;2.65;;;1.67;;
1585;SDS011;786;48.718;9.514;2024-02-15T14:54:25;1.98;;;1.20;;
1585;SDS011;786;48.718;9.514;2024-02-15T14:56:52;3.03;;;1.50;;
1585;SDS011;786;48.718;9.514;2024-02-15T14:59:19;3.30;;;1.60;;
1585;SDS011;786;48.718;9.514;2024-02-15T15:01:45;4.47;;;1.65;;
1585;SDS011;786;48.718;9.514;2024-02-15T15:04:13;4.00;;;1.98;;
1585;SDS011;786;48.718;9.514;2024-02-15T15:06:40;1.67;;;1.50;;
1585;SDS011;786;48.718;9.514;2024-02-15T15:09:28;2.40;;;1.60;;
1585;SDS011;786;48.718;9.514;2024-02-15T15:12:11;2.22;;;1.38;;
1585;SDS011;786;48.718;9.514;2024-02-15T15:14:55;3.53;;;1.23;;
1585;SDS011;786;48.718;9.514;2024-02-15T15:17:21;2.65;;;1.55;;
1585;SDS011;786;48.718;9.514;2024-02-15T15:19:52;2.17;;;1.33;;
1585;SDS011;786;48.718;9.514;2024-02-15T15:22:18;2.25;;;1.70;;
1585;SDS011;786;48.718;9.514;2024-02-15T15:24:46;4.07;;;1.67;;
1585;SDS011;786;48.718;9.514;2024-02-15T15:27:12;1.88;;;1.65;;
1585;SDS011;786;48.718;9.514;2024-02-15T15:29:39;3.03;;;1.42;;
1585;SDS011;786;48.718;9.514;2024-02-15T15:32:05;2.13;;;1.48;;
1585;SDS011;786;48.718;9.514;2024-02-15T15:34:33;1.38;;;1.13;;
1585;SDS011;786;48.718;9.514;2024-02-15T15:37:01;2.15;;;1.40;;
1585;SDS011;786;48.718;9.514;2024-02-15T15:39:27;2.45;;;1.50;;
1585;SDS011;786;48.718;9.514;2024-02-15T15:41:58;1.55;;;1.15;;